Terminal Aerodrome Forecast
Issued by NWS Nashville, TN

Home | Current Version | Previous Version | Text Only | Print | Product List | Glossary On
Versions: 1 2 3 4 5 6 7 8 9 10 11 12 13 14 15 16 17
149
FTUS44 KOHX 292322
TAFCSV
TAF
KCSV 292322Z 3000/3024 18014G24KT P6SM VCSH SCT045 SCT250
     FM300300 17011KT P6SM SCT120
     FM300600 17009KT P6SM SCT150 WS020/19040KT
     FM301400 18014G27KT P6SM SCT030=

USA.gov is the U.S. government's official web portal to all federal, state and local government web resources and services.